createdAt,value
2018-04-10T00:02:16.464Z,59.20
2018-04-10T00:04:44.998Z,60.80
2018-04-10T00:07:12.518Z,61.80
2018-04-10T00:09:40.038Z,63.00
2018-04-10T00:12:07.574Z,64.40
2018-04-10T00:14:35.098Z,65.50
2018-04-10T00:17:02.658Z,66.20
2018-04-10T00:19:30.232Z,64.90
2018-04-10T00:21:57.739Z,64.30
2018-04-10T00:24:26.054Z,64.80
2018-04-10T00:26:53.911Z,64.70
2018-04-10T00:29:21.430Z,65.70
2018-04-10T00:31:48.947Z,67.50
2018-04-10T00:34:16.852Z,68.40
2018-04-10T00:36:45.154Z,68.50
2018-04-10T00:39:14.398Z,69.70
2018-04-10T00:41:42.057Z,69.60
2018-04-10T00:44:09.578Z,68.90
2018-04-10T00:46:37.849Z,68.40
2018-04-10T00:49:05.750Z,68.30
2018-04-10T00:51:33.277Z,68.90
2018-04-10T00:54:01.562Z,69.50
2018-04-10T00:56:29.114Z,69.50
2018-04-10T00:58:57.474Z,69.10
2018-04-10T01:01:24.998Z,69.10
2018-04-10T02:44:30.649Z,73.70
2018-04-10T02:46:58.931Z,73.70
2018-04-10T02:49:27.207Z,73.80
2018-04-10T02:51:55.516Z,73.90
2018-04-10T02:54:23.027Z,73.90
2018-04-10T02:56:51.304Z,74.00
2018-04-10T02:59:19.616Z,73.90
2018-04-10T03:01:47.138Z,73.90
2018-04-10T03:04:16.382Z,74.00
2018-04-10T03:06:44.261Z,74.10
2018-04-10T03:09:12.525Z,74.80
2018-04-10T03:11:40.049Z,74.80
2018-04-10T03:14:08.350Z,75.00
2018-04-10T03:16:35.860Z,75.00
2018-04-10T03:19:03.364Z,75.20
2018-04-10T03:21:30.902Z,75.20
2018-04-10T03:23:58.409Z,75.30
2018-04-10T03:26:25.935Z,75.30
2018-04-10T03:28:54.273Z,75.50
2018-04-10T03:31:22.308Z,75.70
2018-04-10T03:33:50.584Z,75.70
2018-04-10T03:36:18.134Z,75.70
2018-04-10T03:38:45.652Z,75.80
2018-04-10T03:41:15.347Z,75.90
2018-04-10T03:43:43.654Z,75.90
2018-04-10T03:46:11.888Z,75.90
2018-04-10T03:48:39.398Z,76.40
2018-04-10T03:51:08.086Z,76.50
2018-04-10T03:53:35.589Z,76.70
2018-04-10T03:56:03.094Z,76.90
2018-04-10T03:58:30.647Z,77.00
2018-04-10T04:00:58.169Z,77.40
2018-04-10T04:03:25.672Z,77.80
2018-04-10T04:05:53.206Z,78.30
2018-04-10T04:08:21.477Z,78.40
2018-04-10T04:10:48.983Z,78.40
2018-04-10T04:13:16.821Z,78.40
2018-04-10T04:15:44.317Z,78.50
2018-04-10T04:18:23.666Z,78.50
2018-04-10T04:21:03.017Z,78.70
2018-04-10T04:23:31.357Z,79.00
2018-04-10T04:25:58.869Z,78.90
2018-04-10T04:28:27.142Z,79.20
2018-04-10T04:30:55.846Z,79.10
2018-04-10T04:33:23.361Z,79.10
2018-04-10T04:35:50.912Z,79.50
2018-04-10T04:38:18.494Z,78.70
2018-04-10T04:40:46.798Z,78.80
2018-04-10T04:43:26.166Z,78.90
2018-04-10T04:51:44.930Z,78.80
2018-04-10T04:54:12.438Z,79.30
2018-04-10T04:56:39.959Z,79.30
2018-04-10T04:59:07.526Z,79.30
2018-04-10T05:01:35.042Z,79.30
2018-04-10T05:04:02.553Z,78.90
2018-04-10T05:06:30.098Z,78.70
2018-04-10T05:08:57.606Z,78.70
2018-04-10T05:11:25.142Z,78.60
2018-04-10T05:13:53.166Z,78.40
2018-04-10T05:16:20.681Z,78.10
2018-04-10T05:18:48.190Z,78.10
2018-04-10T05:21:16.497Z,78.00
2018-04-10T05:23:44.044Z,77.40
2018-04-10T05:26:11.565Z,77.70
2018-04-10T05:28:39.138Z,76.90
2018-04-10T05:31:06.652Z,76.70
2018-04-10T05:33:34.187Z,76.20
2018-04-10T05:36:02.345Z,76.80
2018-04-10T05:38:29.854Z,76.50
2018-04-10T05:40:58.137Z,74.80
2018-04-10T05:43:26.459Z,74.60
2018-04-10T05:45:54.073Z,74.60
2018-04-10T05:48:22.347Z,74.10
2018-04-10T05:50:50.659Z,73.90
2018-04-10T05:53:19.094Z,73.90
2018-04-10T05:55:47.389Z,73.50
2018-04-10T05:58:16.532Z,73.10
2018-04-10T06:00:44.040Z,73.10
2018-04-10T06:03:11.567Z,73.30
2018-04-10T06:05:39.147Z,73.60
2018-04-10T06:08:07.436Z,74.00
2018-04-10T06:10:34.973Z,74.00
2018-04-10T06:13:03.294Z,73.00
2018-04-10T06:15:31.051Z,72.90
2018-04-10T06:17:59.350Z,72.40
2018-04-10T06:20:27.549Z,72.40
2018-04-10T06:22:55.061Z,71.80
2018-04-10T06:25:22.574Z,71.10
2018-04-10T06:27:50.119Z,70.10
2018-04-10T06:30:17.637Z,69.20
2018-04-10T06:32:45.142Z,69.60
2018-04-10T06:35:15.119Z,69.40
2018-04-10T06:37:42.641Z,69.40
2018-04-10T06:40:10.921Z,68.80
2018-04-10T06:42:38.813Z,68.80
2018-04-10T06:45:12.313Z,68.10
2018-04-10T06:47:39.916Z,65.70
2018-04-10T06:50:07.401Z,62.60
2018-04-10T06:52:34.921Z,59.70
2018-04-10T06:55:02.938Z,56.80
2018-04-10T06:57:30.460Z,54.10
2018-04-10T06:59:57.981Z,51.60
2018-04-10T07:02:25.786Z,53.10
2018-04-10T07:04:53.321Z,52.00
2018-04-10T07:07:20.830Z,49.70
2018-04-10T07:09:48.411Z,49.10
2018-04-10T07:12:16.402Z,47.50
2018-04-10T07:14:43.913Z,46.90
2018-04-10T07:17:11.470Z,47.90
2018-04-10T07:19:38.988Z,48.70
2018-04-10T07:22:06.513Z,50.00
2018-04-10T07:24:34.677Z,52.40
2018-04-10T07:27:02.184Z,53.50
2018-04-10T07:29:29.702Z,53.50
2018-04-10T07:31:57.245Z,53.50
2018-04-10T07:34:24.750Z,52.30
2018-04-10T07:36:52.266Z,51.60
2018-04-10T07:39:19.805Z,50.30
2018-04-10T07:41:48.086Z,50.80
2018-04-10T07:44:17.170Z,51.70
2018-04-10T07:46:45.790Z,52.70
2018-04-10T07:49:14.571Z,52.60
2018-04-10T07:51:42.090Z,52.80
2018-04-10T07:54:09.638Z,52.50
2018-04-10T07:56:37.510Z,53.60
2018-04-10T07:59:05.022Z,53.20
2018-04-10T08:01:32.570Z,54.40
2018-04-10T08:04:00.085Z,54.30
2018-04-10T08:06:27.606Z,55.20
2018-04-10T08:08:55.693Z,54.80
2018-04-10T08:11:23.209Z,54.90
2018-04-10T08:13:50.725Z,54.70
2018-04-10T08:16:18.272Z,55.00
2018-04-10T08:18:45.816Z,55.50
2018-04-10T08:21:25.130Z,55.40
2018-04-10T08:33:14.974Z,57.60
2018-04-10T08:35:42.485Z,57.50
2018-04-10T08:38:10.769Z,58.70
2018-04-10T08:40:39.078Z,58.40
2018-04-10T08:43:06.590Z,58.40
2018-04-10T08:45:34.106Z,58.10
2018-04-10T08:48:01.754Z,58.90
2018-04-10T08:50:29.263Z,59.30
2018-04-10T08:52:56.773Z,58.90
2018-04-10T08:55:24.942Z,58.50
2018-04-10T08:57:53.194Z,58.50
2018-04-10T09:00:20.732Z,58.10
2018-04-10T09:02:48.282Z,59.20
2018-04-10T09:05:16.471Z,59.60
2018-04-10T09:07:44.757Z,59.10
2018-04-10T09:10:14.039Z,58.30
2018-04-10T09:12:42.334Z,57.80
2018-04-10T09:15:09.863Z,57.80
2018-04-10T09:17:38.018Z,58.10
2018-04-10T09:20:05.858Z,57.90
2018-04-10T09:22:33.388Z,58.40
2018-04-10T09:25:01.708Z,58.30
2018-04-10T09:27:29.214Z,58.30
2018-04-10T09:29:57.485Z,58.40
2018-04-10T09:32:26.095Z,58.00
2018-04-10T09:34:53.755Z,57.90
2018-04-10T09:37:21.282Z,59.40
2018-04-10T09:39:50.017Z,57.90
2018-04-10T09:42:17.521Z,57.90
2018-04-10T09:44:45.102Z,57.50
2018-04-10T09:47:13.647Z,56.70
2018-04-10T09:49:41.185Z,57.00
2018-04-10T09:52:08.695Z,57.00
2018-04-10T09:54:37.020Z,57.60
2018-04-10T09:57:04.590Z,57.60
2018-04-10T09:59:33.029Z,57.30
2018-04-10T10:02:01.125Z,57.40
2018-04-10T10:04:28.634Z,56.20
2018-04-10T10:06:57.014Z,55.90
2018-04-10T10:09:25.335Z,55.80
2018-04-10T10:11:52.851Z,55.80
2018-04-10T10:14:21.157Z,57.00
2018-04-10T10:16:48.706Z,57.00
2018-04-10T10:19:17.903Z,57.10
2018-04-10T10:21:45.444Z,56.40
2018-04-10T10:24:25.944Z,56.60
2018-04-10T10:29:33.065Z,56.20
2018-04-10T10:32:00.581Z,56.30
2018-04-10T10:34:28.101Z,55.70
2018-04-10T10:36:55.655Z,54.70
2018-04-10T10:39:23.181Z,54.50
2018-04-10T10:41:50.778Z,53.80
2018-04-10T10:44:18.721Z,53.30
2018-04-10T10:46:46.267Z,53.90
2018-04-10T10:49:26.723Z,51.90
2018-04-10T10:54:51.321Z,51.90
2018-04-10T10:57:19.050Z,53.00
2018-04-10T10:59:47.010Z,53.60
2018-04-10T11:02:16.979Z,53.30
2018-04-10T11:04:44.485Z,53.30
2018-04-10T11:07:12.017Z,54.10
2018-04-10T11:09:40.388Z,55.20
2018-04-10T11:12:08.618Z,55.00
2018-04-10T11:14:37.042Z,53.90
2018-04-10T11:17:04.614Z,53.80
2018-04-10T11:19:32.143Z,53.50
2018-04-10T11:21:59.658Z,53.20
2018-04-10T11:24:28.029Z,51.60
2018-04-10T11:26:55.554Z,51.60
2018-04-10T11:29:23.080Z,52.20
2018-04-10T11:31:51.402Z,52.00
2018-04-10T11:34:18.914Z,52.00
2018-04-10T11:36:46.437Z,52.00
2018-04-10T11:39:15.505Z,51.10
2018-04-10T11:41:43.021Z,50.70
2018-04-10T11:44:10.709Z,51.10
2018-04-10T11:46:38.578Z,51.20
2018-04-10T11:49:06.098Z,50.90
2018-04-10T11:51:34.713Z,49.00
2018-04-10T11:54:02.278Z,49.00
2018-04-10T11:56:29.815Z,48.00
2018-04-10T11:58:57.342Z,48.40
2018-04-10T12:01:25.554Z,47.60
2018-04-10T12:03:53.073Z,48.50
2018-04-10T12:06:20.637Z,48.60
2018-04-10T12:08:48.553Z,48.50
2018-04-10T12:11:16.458Z,49.50
2018-04-10T12:13:43.972Z,49.60
2018-04-10T12:16:11.514Z,50.30
2018-04-10T12:18:39.041Z,49.80
2018-04-10T12:21:06.559Z,49.40
2018-04-10T12:23:34.109Z,49.80
2018-04-10T12:26:01.625Z,49.60
2018-04-10T12:28:29.147Z,50.30
2018-04-10T12:30:57.193Z,50.50
2018-04-10T12:33:25.014Z,50.70
2018-04-10T12:35:52.538Z,51.30
2018-04-10T12:38:20.094Z,50.80
2018-04-10T12:40:47.617Z,50.50
2018-04-10T12:43:16.413Z,49.50
2018-04-10T12:45:43.967Z,49.00
2018-04-10T12:48:11.489Z,48.90
2018-04-10T12:50:39.058Z,48.90
2018-04-10T12:53:07.905Z,48.80
2018-04-10T12:55:35.430Z,48.60
2018-04-10T12:58:02.952Z,48.80
2018-04-10T13:00:30.523Z,49.80
2018-04-10T13:02:58.813Z,48.90
2018-04-10T13:05:29.804Z,48.00
2018-04-10T13:07:57.545Z,48.00
2018-04-10T13:10:25.081Z,47.70
2018-04-10T13:12:52.910Z,45.40
2018-04-10T13:15:20.831Z,45.70
2018-04-10T13:17:48.352Z,45.10
2018-04-10T13:20:17.253Z,44.20
2018-04-10T13:22:45.558Z,42.60
2018-04-10T13:25:14.674Z,42.50
2018-04-10T13:27:42.186Z,43.90
2018-04-10T13:30:10.484Z,46.60
2018-04-10T13:32:38.008Z,46.60
2018-04-10T13:35:06.295Z,44.20
2018-04-10T13:37:35.027Z,44.20
2018-04-10T13:40:02.537Z,43.40
2018-04-10T13:42:30.823Z,43.90
2018-04-10T13:44:58.385Z,43.90
2018-04-10T13:47:25.903Z,43.90
2018-04-10T13:49:53.418Z,44.30
2018-04-10T13:52:20.949Z,44.90
2018-04-10T13:54:48.454Z,46.60
2018-04-10T13:57:16.425Z,46.80
2018-04-10T13:59:44.266Z,48.60
2018-04-10T14:02:11.776Z,46.80
2018-04-10T14:04:39.832Z,47.50
2018-04-10T14:07:07.365Z,47.70
2018-04-10T14:09:34.866Z,48.10
2018-04-10T14:12:03.150Z,44.70
2018-04-10T14:14:31.447Z,46.10
2018-04-10T14:16:58.946Z,46.00
2018-04-10T14:19:26.449Z,46.10
2018-04-10T14:21:55.317Z,47.30
2018-04-10T14:24:22.828Z,47.30
2018-04-10T14:26:50.345Z,47.60
2018-04-10T14:29:18.646Z,47.60
2018-04-10T14:31:46.203Z,47.50
2018-04-10T14:34:25.243Z,46.90
2018-04-10T14:41:38.002Z,46.50
2018-04-10T14:44:05.506Z,47.00
2018-04-10T14:46:33.785Z,47.20
2018-04-10T14:49:02.090Z,48.60
2018-04-10T14:51:30.403Z,48.50
2018-04-10T14:53:57.914Z,44.70
2018-04-10T14:56:26.359Z,42.00
2018-04-10T14:58:53.866Z,41.90
2018-04-10T15:01:21.377Z,41.00
2018-04-10T15:03:49.233Z,40.70
2018-04-10T15:06:17.777Z,40.30
2018-04-10T15:08:45.281Z,40.80
2018-04-10T15:11:13.745Z,41.50
2018-04-10T15:13:41.247Z,41.60
2018-04-10T15:16:09.517Z,42.90
2018-04-10T15:18:37.833Z,42.70
2018-04-10T15:21:05.398Z,42.70
2018-04-10T15:23:32.911Z,43.40
2018-04-10T15:26:01.577Z,46.00
2018-04-10T15:28:29.080Z,46.10
2018-04-10T15:30:56.582Z,46.10
2018-04-10T15:33:24.129Z,46.70
2018-04-10T15:35:51.634Z,47.00
2018-04-10T15:38:19.913Z,47.30
2018-04-10T15:40:48.215Z,47.40
2018-04-10T15:43:16.403Z,47.30
2018-04-10T15:45:43.901Z,46.60
2018-04-10T15:48:11.749Z,46.10
2018-04-10T15:50:39.251Z,46.50
2018-04-10T15:53:06.758Z,46.60
2018-04-10T15:55:34.297Z,47.10
2018-04-10T15:58:01.802Z,47.90
2018-04-10T16:00:29.309Z,47.10
2018-04-10T16:02:56.857Z,46.50
2018-04-10T16:05:24.365Z,45.80
2018-04-10T16:07:52.709Z,46.30
2018-04-10T16:10:20.838Z,47.50
2018-04-10T16:12:49.113Z,47.90
2018-04-10T16:15:17.390Z,47.90
2018-04-10T16:17:45.706Z,48.20
2018-04-10T16:20:14.602Z,48.10
2018-04-10T16:22:42.104Z,48.90
2018-04-10T16:25:09.926Z,48.70
2018-04-10T16:27:37.438Z,48.80
2018-04-10T16:30:04.940Z,48.60
2018-04-10T16:32:32.707Z,49.30
2018-04-10T16:35:00.217Z,49.00
2018-04-10T16:37:27.738Z,48.90
2018-04-10T16:39:55.317Z,48.60
2018-04-10T16:42:22.873Z,49.40
2018-04-10T16:44:50.378Z,49.40
2018-04-10T16:47:17.921Z,49.80
2018-04-10T16:49:45.438Z,50.10
2018-04-10T16:52:24.349Z,49.80
2018-04-10T16:57:56.195Z,50.70
2018-04-10T17:00:23.717Z,51.10
2018-04-10T17:02:51.230Z,51.40
2018-04-10T17:05:18.774Z,51.60
2018-04-10T17:07:46.282Z,51.80
2018-04-10T17:10:16.192Z,52.10
2018-04-10T17:12:44.373Z,52.30
2018-04-10T17:15:11.981Z,52.70
2018-04-10T17:17:39.486Z,53.00
2018-04-10T17:20:07.042Z,53.30
2018-04-10T17:22:34.551Z,53.50
2018-04-10T17:25:02.605Z,53.80
2018-04-10T17:27:30.141Z,54.20
2018-04-10T17:29:58.429Z,55.00
2018-04-10T17:32:26.718Z,55.00
2018-04-10T17:34:54.503Z,55.40
2018-04-10T17:37:22.010Z,55.20
2018-04-10T17:39:49.521Z,55.50
2018-04-10T17:42:17.057Z,55.80
2018-04-10T17:44:44.573Z,56.00
2018-04-10T17:47:12.091Z,56.20
2018-04-10T17:49:39.633Z,56.40
2018-04-10T17:52:07.141Z,56.40
2018-04-10T17:54:34.642Z,56.70
2018-04-10T17:57:02.834Z,57.10
2018-04-10T17:59:30.341Z,57.70
2018-04-10T18:01:57.858Z,58.00
2018-04-10T18:04:25.432Z,58.60
2018-04-10T18:06:53.718Z,58.50
2018-04-10T18:09:21.244Z,58.50
2018-04-10T18:11:49.620Z,58.70
2018-04-10T18:14:17.666Z,58.50
2018-04-10T18:16:45.199Z,58.40
2018-04-10T18:19:14.077Z,58.30
2018-04-10T18:21:41.659Z,58.30
2018-04-10T18:24:09.210Z,58.50
2018-04-10T18:26:36.750Z,58.40
2018-04-10T18:29:04.275Z,58.60
2018-04-10T18:31:32.615Z,58.90
2018-04-10T18:34:01.490Z,59.40
2018-04-10T18:36:28.997Z,59.30
2018-04-10T18:38:56.505Z,59.60
2018-04-10T18:41:24.643Z,59.90
2018-04-10T18:43:52.160Z,60.20
2018-04-10T18:46:20.433Z,61.10
2018-04-10T18:48:48.797Z,61.60
2018-04-10T18:51:17.198Z,62.00
2018-04-10T18:53:45.496Z,62.50
2018-04-10T18:56:24.672Z,62.50
2018-04-10T19:01:21.350Z,63.20
2018-04-10T19:03:49.711Z,64.10
2018-04-10T19:06:17.232Z,64.10
2018-04-10T19:08:44.754Z,64.40
2018-04-10T19:11:13.979Z,64.30
2018-04-10T19:13:42.865Z,64.30
2018-04-10T19:16:10.378Z,64.70
2018-04-10T19:18:38.414Z,65.60
2018-04-10T19:21:05.974Z,65.10
2018-04-10T19:23:33.502Z,65.30
2018-04-10T19:26:01.812Z,65.60
2018-04-10T19:28:29.426Z,65.70
2018-04-10T19:30:56.943Z,66.10
2018-04-10T19:33:24.506Z,67.20
2018-04-10T19:35:52.035Z,67.80
2018-04-10T19:38:19.656Z,67.80
2018-04-10T19:40:48.023Z,69.20
2018-04-10T19:43:16.397Z,69.70
2018-04-10T19:45:43.902Z,68.50
2018-04-10T19:48:11.745Z,68.70
2018-04-10T19:50:40.065Z,69.00
2018-04-10T19:53:07.671Z,69.00
2018-04-10T19:55:35.234Z,69.40
2018-04-10T19:58:03.548Z,70.90
2018-04-10T20:00:31.068Z,70.80
2018-04-10T20:02:59.534Z,75.90
2018-04-10T20:05:28.711Z,77.70
2018-04-10T20:07:56.232Z,78.30
2018-04-10T20:10:24.255Z,78.70
2018-04-10T20:12:51.773Z,79.00
2018-04-10T20:15:19.990Z,79.80
2018-04-10T20:17:47.553Z,80.70
2018-04-10T20:20:16.452Z,79.70
2018-04-10T20:22:43.969Z,80.20
2018-04-10T20:25:12.342Z,80.70
2018-04-10T20:27:40.004Z,80.70
2018-04-10T20:30:07.528Z,81.90
2018-04-10T20:32:35.833Z,83.20
2018-04-10T20:35:03.345Z,83.80
2018-04-10T20:37:31.623Z,82.70
2018-04-10T20:40:00.074Z,83.70
2018-04-10T20:42:27.578Z,83.70
2018-04-10T20:44:55.090Z,85.10
2018-04-10T20:47:22.630Z,86.00
2018-04-10T20:49:50.166Z,86.50
2018-04-10T20:52:17.681Z,87.30
2018-04-10T20:54:45.270Z,88.00
2018-04-10T20:57:13.705Z,88.70
2018-04-10T20:59:41.233Z,89.00
2018-04-10T21:02:08.765Z,89.00
2018-04-10T21:04:36.385Z,89.00
2018-04-10T21:07:03.899Z,89.20
2018-04-10T21:09:31.453Z,89.10
2018-04-10T21:11:58.958Z,87.90
2018-04-10T21:14:26.493Z,88.10
2018-04-10T21:16:54.951Z,88.50
2018-04-10T21:19:22.464Z,88.10
2018-04-10T21:21:49.969Z,88.50
2018-04-10T21:24:17.509Z,87.90
2018-04-10T21:26:45.038Z,87.40
2018-04-10T21:29:12.553Z,87.80
2018-04-10T21:31:40.092Z,88.10
2018-04-10T21:34:07.604Z,87.90
2018-04-10T21:36:35.115Z,88.10
2018-04-10T21:39:02.993Z,87.90
2018-04-10T21:41:30.514Z,88.70
2018-04-10T21:43:58.029Z,88.40
2018-04-10T21:46:25.573Z,88.00
2018-04-10T21:48:53.094Z,88.30
2018-04-10T21:51:21.377Z,89.50
2018-04-10T21:53:48.923Z,89.50
2018-04-10T21:56:16.461Z,90.00
2018-04-10T21:58:43.980Z,90.10
2018-04-10T22:01:12.146Z,90.30
2018-04-10T22:03:39.654Z,90.50
2018-04-10T22:06:07.170Z,90.70
2018-04-10T22:08:34.702Z,90.60
2018-04-10T22:11:02.224Z,90.70
2018-04-10T22:13:29.736Z,90.70
2018-04-10T22:15:57.279Z,90.70
2018-04-10T22:18:25.413Z,90.80
2018-04-10T22:20:52.921Z,91.00
2018-04-10T22:23:20.790Z,91.10
2018-04-10T22:25:48.309Z,91.10
2018-04-10T22:28:16.445Z,91.10
2018-04-10T22:30:43.974Z,91.20
2018-04-10T22:33:11.475Z,91.10
2018-04-10T22:35:38.985Z,90.90
2018-04-10T22:38:07.306Z,91.20
2018-04-10T22:40:35.635Z,91.30
2018-04-10T22:43:03.159Z,91.30
2018-04-10T22:45:31.282Z,91.20
2018-04-10T22:47:58.815Z,91.10
2018-04-10T22:50:26.327Z,91.40
2018-04-10T22:52:54.740Z,91.40
2018-04-10T22:55:22.255Z,91.40
2018-04-10T22:57:50.550Z,91.50
2018-04-10T23:00:29.908Z,91.50
2018-04-10T23:02:57.417Z,91.60
2018-04-10T23:05:24.943Z,91.80
2018-04-10T23:07:53.103Z,91.90
2018-04-10T23:10:20.614Z,92.10
2018-04-10T23:12:48.132Z,91.80
2018-04-10T23:15:16.495Z,92.30
2018-04-10T23:17:44.032Z,92.70
2018-04-10T23:20:12.674Z,93.50
2018-04-10T23:22:40.224Z,93.50
2018-04-10T23:25:07.788Z,93.70
2018-04-10T23:27:35.349Z,93.90
2018-04-10T23:30:03.212Z,93.90
2018-04-10T23:32:30.734Z,94.20
2018-04-10T23:34:59.010Z,94.00
2018-04-10T23:37:27.324Z,94.40
2018-04-10T23:39:54.838Z,94.40
2018-04-10T23:42:22.351Z,94.30
2018-04-10T23:44:49.889Z,94.30
2018-04-10T23:47:17.400Z,94.20
2018-04-10T23:49:44.922Z,94.50
2018-04-10T23:52:12.798Z,94.50
2018-04-10T23:54:40.318Z,94.40
2018-04-10T23:57:08.599Z,94.20
2018-04-10T23:59:36.991Z,94.40
